Stolt Ami — 3EAZ5 — position and weather

sailwx.info

Track history (hours):
 
Tides and Currents Weather Stations Pressure Air Temp Water Temp Dewpoint Dewpoint Depression Visibility Wind Speed Wind Dir Waves Ship Positions

Stolt Ami

Last reported at 2017-Feb-26 13:31 UTC. Time now 2017-Mar-27 08:37 UTC.
Position N 01°57' E 102°16'.
Warning: this ship's position is 28 days out of date.

Length 143 m; draft 9.1 m.

Type: Ship (hazmat cat B). MMSI: 371392514.

Date/timePositionNaut miles runAvg speedWind from/ knotsBaromVisibWave heightAir tempDewpointWater temp
2017-Feb-26 13:31N 01°57' E 102°16'1111.8
2017-Feb-26 12:33N 01°53' E 102°26'1411.9
2017-Feb-26 11:23N 01°48' E 102°39'4614.0
2017-Feb-26 08:05N 01°22' E 103°17'814.4
2017-Feb-26 07:33N 01°16' E 103°23'1313.3
2017-Feb-26 06:33N 01°12' E 103°35'4 4.1
2017-Feb-26 05:31N 01°13' E 103°39'0 0.1
2017-Feb-26 04:31N 01°13' E 103°39'0 0.0
2017-Feb-26 03:31N 01°13' E 103°39'0 0.0
2017-Feb-26 02:31N 01°13' E 103°39'0 0.0
2017-Feb-26 01:31N 01°13' E 103°39'0 0.0
2017-Feb-26 00:31N 01°13' E 103°39'0 0.0
2017-Feb-25 23:31N 01°13' E 103°39'0 0.1
2017-Feb-25 22:31N 01°13' E 103°39'3 2.9
2017-Feb-25 21:33N 01°11' E 103°40'5 5.2
2017-Feb-25 20:33N 01°09' E 103°45'9 8.6
2017-Feb-25 19:33N 01°13' E 103°53'  
Track history (hours):
 
Tides and Currents Weather Stations Pressure Air Temp Water Temp Dewpoint Dewpoint Depression Visibility Wind Speed Wind Dir Waves Ship Positions

Stolt Ami

Last reported at 2017-Feb-26 13:31 UTC. Time now 2017-Mar-27 08:37 UTC.
Position N 01°57' E 102°16'.
Warning: this ship's position is 28 days out of date.

Length 143 m; draft 9.1 m.

Type: Ship (hazmat cat B). MMSI: 371392514.

Date/timePositionNaut miles runAvg speedWind from/ knotsBaromVisibWave heightAir tempDewpointWater temp
2017-Feb-26 13:31N 01°57' E 102°16'1111.8
2017-Feb-26 12:33N 01°53' E 102°26'1411.9
2017-Feb-26 11:23N 01°48' E 102°39'4614.0
2017-Feb-26 08:05N 01°22' E 103°17'814.4
2017-Feb-26 07:33N 01°16' E 103°23'1313.3
2017-Feb-26 06:33N 01°12' E 103°35'4 4.1
2017-Feb-26 05:31N 01°13' E 103°39'0 0.1
2017-Feb-26 04:31N 01°13' E 103°39'0 0.0
2017-Feb-26 03:31N 01°13' E 103°39'0 0.0
2017-Feb-26 02:31N 01°13' E 103°39'0 0.0
2017-Feb-26 01:31N 01°13' E 103°39'0 0.0
2017-Feb-26 00:31N 01°13' E 103°39'0 0.0
2017-Feb-25 23:31N 01°13' E 103°39'0 0.1
2017-Feb-25 22:31N 01°13' E 103°39'3 2.9
2017-Feb-25 21:33N 01°11' E 103°40'5 5.2
2017-Feb-25 20:33N 01°09' E 103°45'9 8.6
2017-Feb-25 19:33N 01°13' E 103°53'  

Dump ship's entire track history